AAL922 KBOS-KCLT
Flight info
| Callsign | AAL922 |
|---|---|
| Flight time | N/A |
| Altitude | 38000 |
| Route | PATSS7 PATSS NELIE Q75 GVE AIROW CHSLY6 |
| Aircraft | A321/M-SDE3FGHIRWY/LB1 |
Departure
| Time | 2026-05-04 00:46 |
|---|---|
| Airport | Boston Logan International Airport (KBOS) |
Arrival
| Time | N/A |
|---|---|
| Airport | Charlotte Douglas International Airport (KCLT) |
| Time | Latitude | Longitude | Altitude | Speed | Heading |
|---|---|---|---|---|---|
| 2026-05-04 00:17 | 42.36133 | -71.02019 | 15 ft | 0 kts | 24° |
| 2026-05-04 00:36 | 42.36127 | -71.02022 | 15 ft | 2 kts | 24° |
| 2026-05-04 00:36 | 42.36113 | -71.02030 | 15 ft | 2 kts | 24° |
| 2026-05-04 00:36 | 42.36100 | -71.02038 | 15 ft | 2 kts | 24° |
| 2026-05-04 00:36 | 42.36086 | -71.02046 | 15 ft | 2 kts | 24° |
| 2026-05-04 00:37 | 42.36072 | -71.02055 | 16 ft | 2 kts | 24° |
| 2026-05-04 00:37 | 42.36058 | -71.02064 | 16 ft | 2 kts | 39° |
| 2026-05-04 00:37 | 42.36049 | -71.02080 | 16 ft | 2 kts | 65° |
| 2026-05-04 00:37 | 42.36046 | -71.02100 | 15 ft | 2 kts | 90° |
| 2026-05-04 00:38 | 42.36048 | -71.02119 | 15 ft | 1 kts | 115° |
| 2026-05-04 00:38 | 42.36051 | -71.02126 | 15 ft | 1 kts | 123° |
| 2026-05-04 00:38 | 42.36053 | -71.02130 | 15 ft | 0 kts | 121° |
| 2026-05-04 00:40 | 42.36053 | -71.02129 | 15 ft | 0 kts | 121° |
| 2026-05-04 00:40 | 42.36019 | -71.02052 | 16 ft | 16 kts | 120° |
| 2026-05-04 00:40 | 42.35963 | -71.01921 | 17 ft | 16 kts | 120° |
| 2026-05-04 00:40 | 42.35914 | -71.01778 | 17 ft | 17 kts | 103° |
| 2026-05-04 00:41 | 42.35889 | -71.01619 | 18 ft | 17 kts | 101° |
| 2026-05-04 00:41 | 42.35870 | -71.01465 | 20 ft | 16 kts | 100° |
| 2026-05-04 00:41 | 42.35850 | -71.01305 | 20 ft | 17 kts | 99° |
| 2026-05-04 00:41 | 42.35912 | -71.01186 | 17 ft | 18 kts | 16° |
| 2026-05-04 00:42 | 42.36030 | -71.01127 | 17 ft | 19 kts | 21° |
| 2026-05-04 00:42 | 42.36164 | -71.01064 | 17 ft | 20 kts | 21° |
| 2026-05-04 00:42 | 42.36181 | -71.00906 | 15 ft | 19 kts | 110° |
| 2026-05-04 00:42 | 42.36127 | -71.00734 | 14 ft | 20 kts | 113° |
| 2026-05-04 00:43 | 42.36079 | -71.00552 | 14 ft | 20 kts | 107° |
| 2026-05-04 00:43 | 42.36033 | -71.00369 | 14 ft | 20 kts | 112° |
| 2026-05-04 00:43 | 42.35988 | -71.00187 | 14 ft | 20 kts | 106° |
| 2026-05-04 00:43 | 42.35912 | -71.00017 | 11 ft | 21 kts | 134° |
| 2026-05-04 00:44 | 42.35804 | -70.99875 | 11 ft | 21 kts | 135° |
| 2026-05-04 00:44 | 42.35694 | -70.99730 | 11 ft | 21 kts | 136° |
| 2026-05-04 00:44 | 42.35587 | -70.99584 | 11 ft | 21 kts | 135° |
| 2026-05-04 00:44 | 42.35480 | -70.99438 | 11 ft | 21 kts | 121° |
| 2026-05-04 00:45 | 42.35516 | -70.99299 | 11 ft | 14 kts | 56° |
| 2026-05-04 00:45 | 42.35592 | -70.99329 | 11 ft | 16 kts | 315° |
| 2026-05-04 00:45 | 42.35809 | -70.99622 | 11 ft | 79 kts | 315° |
| 2026-05-04 00:45 | 42.36371 | -71.00377 | 13 ft | 144 kts | 315° |
| 2026-05-04 00:46 | 42.37124 | -71.01381 | 480 ft | 158 kts | 314° |
| 2026-05-04 00:46 | 42.37835 | -71.02346 | 1431 ft | 140 kts | 313° |
| 2026-05-04 00:46 | 42.38507 | -71.03245 | 2077 ft | 139 kts | 311° |
| 2026-05-04 00:46 | 42.39066 | -71.04365 | 2362 ft | 151 kts | 300° |
| 2026-05-04 00:47 | 42.39586 | -71.05682 | 2656 ft | 165 kts | 299° |
| 2026-05-04 00:47 | 42.40159 | -71.07114 | 2959 ft | 180 kts | 300° |
| 2026-05-04 00:47 | 42.40691 | -71.08719 | 3254 ft | 198 kts | 286° |
| 2026-05-04 00:47 | 42.40652 | -71.10692 | 3503 ft | 226 kts | 258° |
| 2026-05-04 00:48 | 42.39927 | -71.12522 | 3859 ft | 250 kts | 239° |
| 2026-05-04 00:48 | 42.38885 | -71.14452 | 4532 ft | 256 kts | 240° |
| 2026-05-04 00:48 | 42.37860 | -71.16382 | 5325 ft | 259 kts | 240° |
| 2026-05-04 00:48 | 42.36809 | -71.18372 | 6150 ft | 261 kts | 241° |
| 2026-05-04 00:49 | 42.35761 | -71.20367 | 6957 ft | 264 kts | 241° |
| 2026-05-04 00:49 | 42.34697 | -71.22389 | 7786 ft | 267 kts | 242° |
| 2026-05-04 00:49 | 42.33634 | -71.24408 | 8628 ft | 269 kts | 242° |
| 2026-05-04 00:49 | 42.32546 | -71.26472 | 9463 ft | 271 kts | 242° |
| 2026-05-04 00:50 | 42.31463 | -71.28532 | 10253 ft | 274 kts | 243° |
| 2026-05-04 00:50 | 42.30345 | -71.30667 | 10765 ft | 287 kts | 242° |
| 2026-05-04 00:50 | 42.29158 | -71.32938 | 11166 ft | 303 kts | 242° |
| 2026-05-04 00:50 | 42.27943 | -71.35242 | 11801 ft | 309 kts | 242° |
| 2026-05-04 00:51 | 42.26685 | -71.37619 | 12544 ft | 312 kts | 242° |
| 2026-05-04 00:51 | 42.25421 | -71.40005 | 13264 ft | 315 kts | 242° |
| 2026-05-04 00:51 | 42.24148 | -71.42411 | 13948 ft | 318 kts | 241° |
| 2026-05-04 00:51 | 42.22868 | -71.44829 | 14614 ft | 322 kts | 241° |
| 2026-05-04 00:52 | 42.21560 | -71.47296 | 15281 ft | 325 kts | 241° |
| 2026-05-04 00:52 | 42.20239 | -71.49786 | 15955 ft | 328 kts | 241° |
| 2026-05-04 00:52 | 42.18918 | -71.52276 | 16613 ft | 331 kts | 241° |
| 2026-05-04 00:52 | 42.17569 | -71.54816 | 17254 ft | 334 kts | 241° |
| 2026-05-04 00:53 | 42.16231 | -71.57332 | 17889 ft | 336 kts | 241° |
| 2026-05-04 00:53 | 42.14860 | -71.59911 | 18515 ft | 339 kts | 241° |
| 2026-05-04 00:53 | 42.13483 | -71.62495 | 19123 ft | 341 kts | 241° |
| 2026-05-04 00:53 | 42.12093 | -71.65104 | 19715 ft | 344 kts | 240° |
| 2026-05-04 00:54 | 42.10703 | -71.67715 | 20293 ft | 346 kts | 241° |
| 2026-05-04 00:54 | 42.09493 | -71.70480 | 20850 ft | 344 kts | 249° |
| 2026-05-04 00:54 | 42.08631 | -71.73450 | 21388 ft | 342 kts | 258° |
| 2026-05-04 00:54 | 42.08081 | -71.76571 | 21913 ft | 342 kts | 263° |
| 2026-05-04 00:55 | 42.07616 | -71.79697 | 22440 ft | 345 kts | 263° |
| 2026-05-04 00:55 | 42.07155 | -71.82859 | 22937 ft | 348 kts | 263° |
| 2026-05-04 00:55 | 42.06683 | -71.86089 | 23434 ft | 350 kts | 263° |
| 2026-05-04 00:55 | 42.06211 | -71.89298 | 23916 ft | 353 kts | 263° |
| 2026-05-04 00:56 | 42.05730 | -71.92540 | 24397 ft | 355 kts | 263° |
| 2026-05-04 00:56 | 42.05246 | -71.95802 | 24845 ft | 358 kts | 262° |
| 2026-05-04 00:56 | 42.04755 | -71.99090 | 25303 ft | 360 kts | 263° |
| 2026-05-04 00:56 | 42.04260 | -72.02401 | 25755 ft | 362 kts | 262° |
| 2026-05-04 00:57 | 42.03767 | -72.05690 | 26184 ft | 364 kts | 262° |
| 2026-05-04 00:57 | 42.03269 | -72.09016 | 26592 ft | 366 kts | 262° |
| 2026-05-04 00:57 | 42.02758 | -72.12411 | 27008 ft | 368 kts | 262° |
| 2026-05-04 00:57 | 42.02253 | -72.15756 | 27383 ft | 371 kts | 262° |
| 2026-05-04 00:58 | 42.01740 | -72.19149 | 27759 ft | 373 kts | 262° |
| 2026-05-04 00:58 | 42.01220 | -72.22575 | 28126 ft | 375 kts | 262° |
| 2026-05-04 00:58 | 42.00697 | -72.26023 | 28465 ft | 378 kts | 262° |
| 2026-05-04 00:58 | 42.00174 | -72.29463 | 28811 ft | 380 kts | 262° |
| 2026-05-04 00:59 | 41.99642 | -72.32950 | 29161 ft | 382 kts | 262° |
| 2026-05-04 00:59 | 41.99270 | -72.35383 | 29398 ft | 383 kts | 262° |
| 2026-05-04 00:59 | 41.99240 | -72.35574 | 29416 ft | 383 kts | 262° |
| 2026-05-04 01:00 | 41.98906 | -72.37756 | 29622 ft | 385 kts | 262° |
| 2026-05-04 01:00 | 41.98369 | -72.41268 | 29941 ft | 386 kts | 262° |
| 2026-05-04 01:00 | 41.97821 | -72.44833 | 30237 ft | 389 kts | 262° |
| 2026-05-04 01:00 | 41.97272 | -72.48395 | 30537 ft | 391 kts | 262° |
| 2026-05-04 01:01 | 41.96723 | -72.51947 | 30820 ft | 392 kts | 262° |
| 2026-05-04 01:01 | 41.96169 | -72.55534 | 31057 ft | 394 kts | 262° |
| 2026-05-04 01:01 | 41.95555 | -72.59107 | 31244 ft | 397 kts | 258° |
| 2026-05-04 01:01 | 41.94710 | -72.62636 | 31446 ft | 401 kts | 253° |
| 2026-05-04 01:02 | 41.93619 | -72.66106 | 31665 ft | 404 kts | 248° |
| 2026-05-04 01:02 | 41.92305 | -72.69435 | 31858 ft | 408 kts | 244° |
| 2026-05-04 01:02 | 41.90751 | -72.72642 | 32084 ft | 411 kts | 239° |
| 2026-05-04 01:02 | 41.88984 | -72.75656 | 32332 ft | 413 kts | 234° |
| 2026-05-04 01:03 | 41.87042 | -72.78458 | 32584 ft | 414 kts | 231° |
| 2026-05-04 01:03 | 41.85021 | -72.81239 | 32842 ft | 413 kts | 230° |
| 2026-05-04 01:03 | 41.83008 | -72.83987 | 33095 ft | 412 kts | 230° |
| 2026-05-04 01:03 | 41.81128 | -72.86552 | 33317 ft | 411 kts | 230° |
| 2026-05-04 01:04 | 41.79165 | -72.89226 | 33560 ft | 410 kts | 230° |
| 2026-05-04 01:04 | 41.77243 | -72.91840 | 33829 ft | 409 kts | 230° |
| 2026-05-04 01:04 | 41.75247 | -72.94557 | 34100 ft | 408 kts | 230° |
| 2026-05-04 01:04 | 41.73249 | -72.97272 | 34366 ft | 407 kts | 230° |
| 2026-05-04 01:05 | 41.71265 | -72.99968 | 34618 ft | 407 kts | 230° |
| 2026-05-04 01:05 | 41.69296 | -73.02641 | 34847 ft | 406 kts | 230° |
| 2026-05-04 01:05 | 41.67307 | -73.05338 | 35084 ft | 405 kts | 230° |
| 2026-05-04 01:05 | 41.65352 | -73.07989 | 35330 ft | 404 kts | 230° |
| 2026-05-04 01:06 | 41.63378 | -73.10663 | 35558 ft | 403 kts | 230° |
| 2026-05-04 01:06 | 41.61398 | -73.13341 | 35778 ft | 403 kts | 230° |
| 2026-05-04 01:06 | 41.59456 | -73.15967 | 35974 ft | 402 kts | 230° |
| 2026-05-04 01:06 | 41.57487 | -73.18626 | 36151 ft | 403 kts | 230° |
| 2026-05-04 01:07 | 41.55502 | -73.21305 | 36312 ft | 403 kts | 230° |
| 2026-05-04 01:07 | 41.53535 | -73.23958 | 36451 ft | 405 kts | 230° |
| 2026-05-04 01:07 | 41.51573 | -73.26601 | 36598 ft | 405 kts | 230° |
| 2026-05-04 01:07 | 41.49580 | -73.29279 | 36759 ft | 406 kts | 230° |
| 2026-05-04 01:08 | 41.47585 | -73.31963 | 36916 ft | 406 kts | 230° |
| 2026-05-04 01:08 | 41.45632 | -73.34621 | 37053 ft | 406 kts | 230° |
| 2026-05-04 01:08 | 41.43647 | -73.37331 | 37192 ft | 407 kts | 230° |
| 2026-05-04 01:08 | 41.41672 | -73.40027 | 37321 ft | 408 kts | 230° |
| 2026-05-04 01:09 | 41.40321 | -73.41871 | 37410 ft | 408 kts | 230° |
| 2026-05-04 01:09 | 41.38345 | -73.44564 | 37527 ft | 409 kts | 230° |
| 2026-05-04 01:09 | 41.36370 | -73.47252 | 37652 ft | 409 kts | 230° |
| 2026-05-04 01:09 | 41.34359 | -73.49985 | 37771 ft | 410 kts | 230° |
| 2026-05-04 01:10 | 41.32377 | -73.52673 | 37910 ft | 410 kts | 230° |
| 2026-05-04 01:10 | 41.28423 | -73.58172 | 37922 ft | 410 kts | 233° |
| 2026-05-04 01:11 | 41.24815 | -73.63985 | 37933 ft | 408 kts | 235° |
| 2026-05-04 01:11 | 41.21268 | -73.69812 | 37926 ft | 408 kts | 234° |
| 2026-05-04 01:12 | 41.17802 | -73.75500 | 37935 ft | 407 kts | 234° |
| 2026-05-04 01:12 | 41.14274 | -73.81306 | 37936 ft | 407 kts | 235° |
| 2026-05-04 01:13 | 41.11541 | -73.85898 | 37934 ft | 406 kts | 236° |
| 2026-05-04 01:13 | 41.09343 | -73.89599 | 37938 ft | 406 kts | 236° |
| 2026-05-04 01:14 | 41.05847 | -73.95471 | 37936 ft | 406 kts | 236° |
| 2026-05-04 01:14 | 41.02357 | -74.01321 | 37944 ft | 406 kts | 236° |
| 2026-05-04 01:15 | 40.98860 | -74.07169 | 37948 ft | 406 kts | 236° |
| 2026-05-04 01:15 | 40.95345 | -74.13032 | 37952 ft | 405 kts | 236° |
| 2026-05-04 01:16 | 40.91857 | -74.18840 | 37945 ft | 405 kts | 236° |
| 2026-05-04 01:16 | 40.88341 | -74.24686 | 37947 ft | 405 kts | 235° |
| 2026-05-04 01:17 | 40.84856 | -74.30466 | 37944 ft | 405 kts | 236° |
| 2026-05-04 01:17 | 40.81360 | -74.36253 | 37959 ft | 404 kts | 236° |
| 2026-05-04 01:18 | 40.78273 | -74.41354 | 37955 ft | 404 kts | 236° |
| 2026-05-04 01:18 | 40.74797 | -74.47089 | 37956 ft | 404 kts | 236° |
| 2026-05-04 01:19 | 40.71283 | -74.52873 | 37959 ft | 404 kts | 236° |
| 2026-05-04 01:19 | 40.67770 | -74.58653 | 37958 ft | 404 kts | 236° |
| 2026-05-04 01:20 | 40.64268 | -74.64403 | 37956 ft | 404 kts | 236° |
| 2026-05-04 01:20 | 40.60760 | -74.70144 | 37958 ft | 404 kts | 235° |
| 2026-05-04 01:21 | 40.57144 | -74.75787 | 37962 ft | 405 kts | 232° |
| 2026-05-04 01:21 | 40.53308 | -74.81217 | 37961 ft | 404 kts | 232° |
| 2026-05-04 01:22 | 40.49499 | -74.86620 | 37964 ft | 405 kts | 232° |
| 2026-05-04 01:22 | 40.45699 | -74.91989 | 37972 ft | 404 kts | 232° |
| 2026-05-04 01:23 | 40.41853 | -74.97405 | 37969 ft | 403 kts | 232° |
| 2026-05-04 01:23 | 40.38039 | -75.02765 | 37978 ft | 403 kts | 232° |
| 2026-05-04 01:24 | 40.34221 | -75.08125 | 37985 ft | 403 kts | 232° |
| 2026-05-04 01:24 | 40.30409 | -75.13471 | 37995 ft | 402 kts | 232° |
| 2026-05-04 01:25 | 40.26617 | -75.18779 | 37992 ft | 402 kts | 232° |
| 2026-05-04 01:25 | 40.22802 | -75.24109 | 37989 ft | 402 kts | 232° |
| 2026-05-04 01:26 | 40.18978 | -75.29443 | 38000 ft | 401 kts | 232° |
| 2026-05-04 01:26 | 40.15176 | -75.34732 | 38001 ft | 401 kts | 232° |
| 2026-05-04 01:27 | 40.11354 | -75.40044 | 37998 ft | 401 kts | 232° |
| 2026-05-04 01:27 | 40.07559 | -75.45308 | 38005 ft | 401 kts | 232° |
| 2026-05-04 01:28 | 40.03735 | -75.50603 | 38002 ft | 401 kts | 232° |
| 2026-05-04 01:28 | 39.99933 | -75.55862 | 38004 ft | 400 kts | 232° |
| 2026-05-04 01:29 | 39.96111 | -75.61131 | 38011 ft | 399 kts | 232° |
| 2026-05-04 01:29 | 39.92311 | -75.66408 | 38011 ft | 399 kts | 233° |
| 2026-05-04 01:30 | 39.88769 | -75.71945 | 38015 ft | 398 kts | 235° |
| 2026-05-04 01:30 | 39.85283 | -75.77507 | 38010 ft | 399 kts | 236° |
| 2026-05-04 01:31 | 39.81768 | -75.83116 | 38010 ft | 398 kts | 235° |
| 2026-05-04 01:31 | 39.78286 | -75.88664 | 38010 ft | 397 kts | 235° |
| 2026-05-04 01:32 | 39.74818 | -75.94180 | 38008 ft | 396 kts | 235° |
| 2026-05-04 01:32 | 39.73151 | -75.96829 | 38009 ft | 396 kts | 235° |
| 2026-05-04 01:33 | 39.72179 | -75.98374 | 38016 ft | 396 kts | 235° |